createdAt,value
2023-03-27T00:01:31.832Z,65.61
2023-03-27T00:06:00.666Z,65.75
2023-03-27T00:10:31.281Z,65.72
2023-03-27T00:15:01.610Z,65.67
2023-03-27T00:36:27.705Z,65.58
2023-03-27T00:40:45.994Z,65.47
2023-03-27T00:45:23.190Z,65.61
2023-03-27T00:49:45.224Z,65.46
2023-03-27T00:54:15.244Z,65.58
2023-03-27T01:11:42.486Z,64.82
2023-03-27T01:16:14.932Z,64.84
2023-03-27T01:35:03.656Z,64.51
2023-03-27T01:39:36.987Z,64.62
2023-03-27T01:43:49.253Z,64.37
2023-03-27T02:05:50.635Z,64.29
2023-03-27T02:10:11.304Z,63.92
2023-03-27T02:14:45.429Z,63.95
2023-03-27T02:19:03.649Z,63.82
2023-03-27T02:41:17.988Z,63.19
2023-03-27T02:46:02.883Z,63.17
2023-03-27T02:50:39.338Z,62.76
2023-03-27T02:55:05.559Z,62.78
2023-03-27T02:59:29.649Z,62.59
2023-03-27T03:04:08.974Z,62.52
2023-03-27T03:26:22.206Z,63.32
2023-03-27T03:30:51.929Z,63.84
2023-03-27T03:52:42.834Z,64.46
2023-03-27T03:57:11.938Z,64.98
2023-03-27T04:01:43.057Z,64.86
2023-03-27T04:23:35.096Z,64.04
2023-03-27T04:28:06.434Z,64.03
2023-03-27T04:32:36.371Z,63.61
2023-03-27T04:36:48.874Z,63.46
2023-03-27T04:41:17.884Z,63.73
2023-03-27T05:06:08.597Z,62.73
2023-03-27T05:10:11.314Z,62.81
2023-03-27T05:14:38.786Z,62.61
2023-03-27T05:18:35.670Z,62.52
2023-03-27T05:23:05.638Z,62.78
2023-03-27T05:27:35.204Z,62.67
2023-03-27T05:44:43.288Z,62.33
2023-03-27T05:49:13.422Z,62.64
2023-03-27T05:53:45.489Z,62.58
2023-03-27T05:57:56.661Z,62.37
2023-03-27T06:14:39.330Z,62.61
2023-03-27T06:18:55.846Z,62.44
2023-03-27T06:23:25.247Z,62.68
2023-03-27T06:27:42.267Z,62.52
2023-03-27T06:31:31.171Z,62.44
2023-03-27T06:38:51.160Z,62.76
2023-03-27T06:42:38.465Z,62.72
2023-03-27T06:46:16.513Z,62.76
2023-03-27T06:50:37.998Z,62.85
2023-03-27T06:53:43.795Z,63.37
2023-03-27T06:57:01.168Z,63.70
2023-03-27T06:59:54.815Z,63.64
2023-03-27T07:03:48.339Z,64.28
2023-03-27T07:11:39.899Z,65.08
2023-03-27T07:14:32.436Z,65.22
2023-03-27T07:17:48.709Z,65.16
2023-03-27T07:20:58.700Z,65.29
2023-03-27T07:23:51.575Z,65.71
2023-03-27T07:27:00.421Z,65.63
2023-03-27T07:30:49.424Z,65.86
2023-03-27T07:35:00.864Z,66.28
2023-03-27T08:17:15.578Z,66.89
2023-03-27T08:21:45.649Z,66.35
2023-03-27T08:43:08.500Z,64.50
2023-03-27T08:47:58.929Z,64.93
2023-03-27T08:52:37.228Z,65.42
2023-03-27T09:14:51.195Z,65.01
2023-03-27T09:19:27.330Z,64.46
2023-03-27T09:50:18.328Z,63.59
2023-03-27T10:08:08.740Z,60.95
2023-03-27T10:12:50.967Z,61.05
2023-03-27T10:17:00.833Z,60.74
2023-03-27T10:21:35.747Z,60.03
2023-03-27T10:26:08.062Z,59.58
2023-03-27T11:23:08.997Z,50.54
2023-03-27T11:27:29.105Z,49.70
2023-03-27T11:32:14.748Z,49.60
2023-03-27T11:45:07.204Z,48.79
2023-03-27T12:34:40.238Z,43.62
2023-03-27T13:04:04.311Z,42.99
2023-03-27T13:08:30.903Z,42.89
2023-03-27T13:13:11.485Z,42.90
2023-03-27T13:17:46.572Z,42.91
2023-03-27T13:22:26.238Z,42.65
2023-03-27T13:26:56.416Z,42.78
2023-03-27T13:48:52.373Z,42.26
2023-03-27T13:53:08.016Z,42.41
2023-03-27T14:01:59.679Z,42.85
2023-03-27T14:06:26.334Z,42.54
2023-03-27T14:15:17.387Z,42.16
2023-03-27T14:54:26.422Z,42.95
2023-03-27T14:58:55.761Z,42.10
2023-03-27T15:03:14.055Z,42.04
2023-03-27T15:37:57.164Z,40.46
2023-03-27T15:42:32.265Z,40.20
2023-03-27T15:47:01.150Z,40.17
2023-03-27T15:51:38.632Z,40.34
2023-03-27T16:13:28.588Z,40.75
2023-03-27T16:17:55.615Z,41.54
2023-03-27T16:21:48.230Z,41.67
2023-03-27T16:51:28.293Z,44.75
2023-03-27T16:55:47.200Z,45.16
2023-03-27T17:00:17.193Z,45.53
2023-03-27T17:21:50.065Z,47.25
2023-03-27T17:26:18.878Z,47.58
2023-03-27T17:31:01.134Z,48.01
2023-03-27T17:35:07.595Z,48.40
2023-03-27T17:56:06.991Z,49.76
2023-03-27T18:00:40.843Z,50.13
2023-03-27T18:05:02.996Z,50.37
2023-03-27T18:09:32.874Z,50.59
2023-03-27T18:13:58.524Z,50.71
2023-03-27T18:31:13.754Z,51.55
2023-03-27T18:35:43.278Z,52.14
2023-03-27T18:40:12.019Z,52.69
2023-03-27T19:01:44.503Z,53.50
2023-03-27T19:06:14.404Z,54.01
2023-03-27T19:37:09.310Z,55.06
2023-03-27T20:00:00.256Z,56.17
2023-03-27T20:04:29.516Z,56.32
2023-03-27T20:08:58.917Z,56.72
2023-03-27T20:13:28.790Z,56.97
2023-03-27T20:22:24.900Z,57.42
2023-03-27T20:26:36.134Z,57.84
2023-03-27T20:30:35.529Z,58.02
2023-03-27T20:57:50.714Z,59.18
2023-03-27T21:02:19.650Z,59.61
2023-03-27T21:06:51.817Z,59.75
2023-03-27T21:28:33.954Z,60.59
2023-03-27T21:33:03.779Z,61.04
2023-03-27T21:37:34.005Z,61.08
2023-03-27T22:03:29.285Z,61.47
2023-03-27T22:20:19.894Z,62.39
2023-03-27T22:24:48.677Z,62.63
2023-03-27T22:44:10.667Z,63.02
2023-03-27T22:48:19.290Z,63.52
2023-03-27T22:52:48.835Z,63.65
2023-03-27T22:57:18.787Z,63.74
2023-03-27T23:14:44.267Z,63.54
2023-03-27T23:19:13.011Z,64.20
2023-03-27T23:23:42.266Z,63.63
2023-03-27T23:28:11.201Z,63.71
2023-03-27T23:32:40.096Z,63.89
2023-03-27T23:54:28.084Z,64.36
2023-03-27T23:58:56.871Z,64.52
